Time;durP1;ratioP1;P1;durP2;ratioP2;P2;SDS_P1;SDS_P2;PMS_P1;PMS_P2;Temp;Humidity;BMP_temperature;BMP_pressure;BME280_temperature;BME280_humidity;BME280_pressure;Samples;Min_cycle;Max_cycle;Signal;HPM_P1;HPM_P2
2022/09/20 00:01:09;;;;;;;;;;;15.50;65.80;;;;;;4946127;28;20001;-87
2022/09/20 00:14:39;;;;;;;;;;;15.40;65.90;;;;;;5209417;23;19964;-84
2022/09/20 00:17:05;;;;;;;;;;;15.40;66.00;;;;;;4996000;28;20456;-89
2022/09/20 00:19:30;;;;;;;;;;;15.30;65.90;;;;;;5016746;28;19922;-88
2022/09/20 00:21:56;;;;;;;;;;;15.40;66.00;;;;;;5016450;28;19918;-88
2022/09/20 00:24:21;;;;;;;;;;;15.30;65.90;;;;;;5016768;28;19916;-87
2022/09/20 00:26:47;;;;;;;;;;;15.30;65.90;;;;;;5000037;28;20374;-88
2022/09/20 00:29:13;;;;;;;;;;;15.40;66.00;;;;;;4999764;28;20076;-88
2022/09/20 00:31:41;;;;;;;;;;;15.30;65.90;;;;;;5015694;28;20008;-88
2022/09/20 00:36:53;;;;;;;;;;;15.30;65.90;;;;;;5017129;28;19964;-89
2022/09/20 00:39:18;;;;;;;;;;;15.30;65.90;;;;;;4999989;28;19914;-85
2022/09/20 00:41:44;;;;;;;;;;;15.30;66.00;;;;;;5022538;28;19914;-87
2022/09/20 00:44:29;;;;;;;;;;;15.30;66.00;;;;;;5030259;28;20317;-89
2022/09/20 00:46:54;;;;;;;;;;;15.30;66.00;;;;;;5032283;28;19965;-85
2022/09/20 00:49:24;;;;;;;;;;;15.30;66.00;;;;;;5035164;28;19917;-85
2022/09/20 00:51:59;;;;;;;;;;;15.30;66.00;;;;;;5028050;28;19924;-87
2022/09/20 00:54:25;;;;;;;;;;;15.30;66.00;;;;;;5017095;28;20016;-90
2022/09/20 00:56:51;;;;;;;;;;;15.20;66.00;;;;;;4999182;28;20388;-90
2022/09/20 00:59:19;;;;;;;;;;;15.30;66.00;;;;;;5016714;28;19924;-89
2022/09/20 01:01:46;;;;;;;;;;;15.30;66.10;;;;;;5014981;28;20354;-88
2022/09/20 01:04:13;;;;;;;;;;;15.20;66.00;;;;;;5016591;28;19914;-83
2022/09/20 01:06:40;;;;;;;;;;;15.20;66.10;;;;;;4999028;28;20247;-89
2022/09/20 01:09:06;;;;;;;;;;;15.20;66.00;;;;;;5015207;28;20420;-88
2022/09/20 01:11:33;;;;;;;;;;;15.20;66.10;;;;;;5016781;28;19967;-88
2022/09/20 01:13:59;;;;;;;;;;;15.20;66.10;;;;;;5015655;28;19924;-89
2022/09/20 01:16:25;;;;;;;;;;;15.20;66.10;;;;;;5016187;28;19917;-88
2022/09/20 01:18:51;;;;;;;;;;;15.20;66.10;;;;;;5015346;28;19922;-88
2022/09/20 01:21:18;;;;;;;;;;;15.20;66.10;;;;;;5016199;28;19916;-88
2022/09/20 01:24:02;;;;;;;;;;;15.20;66.10;;;;;;4998753;28;19964;-89
2022/09/20 01:26:40;;;;;;;;;;;15.10;66.10;;;;;;5016136;28;20357;-86
2022/09/20 01:29:17;;;;;;;;;;;15.10;66.10;;;;;;5015384;28;20013;-87
2022/09/20 01:31:50;;;;;;;;;;;15.10;66.10;;;;;;5015315;28;20000;-86
2022/09/20 01:34:32;;;;;;;;;;;15.10;66.20;;;;;;5014980;28;20437;-88
2022/09/20 01:37:04;;;;;;;;;;;15.10;66.20;;;;;;5015565;28;19961;-87
2022/09/20 01:39:29;;;;;;;;;;;15.10;66.20;;;;;;5015138;28;19914;-88
2022/09/20 01:42:00;;;;;;;;;;;15.10;66.20;;;;;;5014953;28;19956;-88
2022/09/20 01:44:45;;;;;;;;;;;15.10;66.20;;;;;;5015293;28;19941;-88
2022/09/20 01:47:29;;;;;;;;;;;15.10;66.20;;;;;;5014740;28;19971;-88
2022/09/20 01:50:09;;;;;;;;;;;15.10;66.30;;;;;;5014474;28;19914;-89
2022/09/20 01:52:50;;;;;;;;;;;15.10;66.20;;;;;;5014243;28;20362;-87
2022/09/20 01:55:22;;;;;;;;;;;15.10;66.30;;;;;;5015132;28;19941;-88
2022/09/20 01:58:06;;;;;;;;;;;15.10;66.30;;;;;;5014863;28;19914;-87
2022/09/20 02:00:49;;;;;;;;;;;15.10;66.30;;;;;;5014227;28;19967;-88
2022/09/20 02:03:18;;;;;;;;;;;15.00;66.30;;;;;;5014221;28;19914;-88
2022/09/20 02:05:50;;;;;;;;;;;15.10;66.30;;;;;;5014168;28;20346;-87
2022/09/20 02:08:32;;;;;;;;;;;15.10;66.30;;;;;;5013889;28;19914;-87
2022/09/20 02:11:13;;;;;;;;;;;15.00;66.30;;;;;;5030528;28;19937;-82
2022/09/20 02:13:50;;;;;;;;;;;15.00;66.30;;;;;;5015496;28;19918;-88
2022/09/20 02:16:34;;;;;;;;;;;15.00;66.30;;;;;;5014973;28;19921;-89
2022/09/20 02:19:02;;;;;;;;;;;15.00;66.30;;;;;;5016942;28;19914;-89
2022/09/20 02:21:28;;;;;;;;;;;15.00;66.30;;;;;;5017370;28;19914;-86
2022/09/20 02:23:57;;;;;;;;;;;15.00;66.30;;;;;;5014966;28;20415;-84
2022/09/20 02:26:22;;;;;;;;;;;15.00;66.30;;;;;;5015092;28;19914;-88
2022/09/20 02:28:51;;;;;;;;;;;15.00;66.30;;;;;;5013940;28;19914;-89
2022/09/20 02:31:26;;;;;;;;;;;15.00;66.30;;;;;;5013696;28;19992;-88
2022/09/20 02:34:10;;;;;;;;;;;15.00;66.40;;;;;;5013794;28;19969;-88
2022/09/20 02:36:51;;;;;;;;;;;15.00;66.40;;;;;;5014084;28;19937;-88
2022/09/20 02:39:33;;;;;;;;;;;15.00;66.40;;;;;;5014516;28;19976;-88
2022/09/20 02:42:22;;;;;;;;;;;15.00;66.40;;;;;;5014040;28;19968;-85
2022/09/20 02:45:01;;;;;;;;;;;15.00;66.40;;;;;;4998266;28;20012;-87
2022/09/20 02:47:34;;;;;;;;;;;15.00;66.40;;;;;;5014720;28;19921;-87
2022/09/20 02:50:18;;;;;;;;;;;15.00;66.50;;;;;;5014718;28;19914;-86
2022/09/20 02:52:59;;;;;;;;;;;15.00;66.40;;;;;;5013773;28;20346;-87
2022/09/20 02:55:25;;;;;;;;;;;15.00;66.50;;;;;;5014089;28;19944;-87
2022/09/20 02:57:50;;;;;;;;;;;15.00;66.40;;;;;;5014539;28;19913;-86
2022/09/20 03:00:24;;;;;;;;;;;15.00;66.50;;;;;;5013916;28;19910;-86
2022/09/20 03:03:08;;;;;;;;;;;15.00;66.50;;;;;;5013498;28;19914;-87
2022/09/20 03:05:34;;;;;;;;;;;14.90;66.40;;;;;;5013732;28;20429;-85
2022/09/20 03:08:08;;;;;;;;;;;15.00;66.50;;;;;;5013099;28;19964;-86
2022/09/20 03:10:56;;;;;;;;;;;15.00;66.50;;;;;;5015218;28;19921;-86
2022/09/20 03:13:30;;;;;;;;;;;15.00;66.50;;;;;;5008774;28;19921;-88
2022/09/20 03:16:16;;;;;;;;;;;15.00;66.50;;;;;;5020614;28;19921;-81
2022/09/20 03:18:50;;;;;;;;;;;14.90;66.40;;;;;;5004163;28;20004;-86
2022/09/20 03:21:37;;;;;;;;;;;14.90;66.40;;;;;;5018765;28;19913;-87
2022/09/20 03:24:06;;;;;;;;;;;15.00;66.50;;;;;;5017957;28;19909;-85
2022/09/20 03:26:53;;;;;;;;;;;14.90;66.50;;;;;;5016994;28;20281;-86
2022/09/20 03:29:19;;;;;;;;;;;14.90;66.50;;;;;;5017127;28;19921;-88
2022/09/20 03:31:58;;;;;;;;;;;15.00;66.50;;;;;;5000853;28;19910;-84
2022/09/20 03:34:42;;;;;;;;;;;14.90;66.50;;;;;;5000856;28;19928;-87
2022/09/20 03:37:08;;;;;;;;;;;14.90;66.50;;;;;;5017956;28;20370;-86
2022/09/20 03:39:43;;;;;;;;;;;14.90;66.50;;;;;;5001343;28;19917;-86
2022/09/20 03:42:12;;;;;;;;;;;14.90;66.50;;;;;;5017651;28;20353;-88
2022/09/20 03:44:58;;;;;;;;;;;14.90;66.50;;;;;;5016981;28;19916;-87
2022/09/20 03:47:39;;;;;;;;;;;14.90;66.50;;;;;;5006755;28;19913;-87
2022/09/20 03:50:07;;;;;;;;;;;14.90;66.50;;;;;;5017929;28;19914;-86
2022/09/20 03:52:36;;;;;;;;;;;14.90;66.50;;;;;;5016587;28;19916;-87
2022/09/20 03:55:14;;;;;;;;;;;14.90;66.50;;;;;;5017598;28;19914;-88
2022/09/20 03:57:49;;;;;;;;;;;14.90;66.50;;;;;;5016810;28;19960;-86
2022/09/20 04:00:23;;;;;;;;;;;14.90;66.50;;;;;;5017830;28;19913;-88
2022/09/20 04:02:53;;;;;;;;;;;14.90;66.50;;;;;;5017265;28;19921;-86
2022/09/20 04:05:27;;;;;;;;;;;14.90;66.50;;;;;;5017590;28;19910;-87
2022/09/20 04:08:06;;;;;;;;;;;14.90;66.60;;;;;;5017321;28;20352;-88
2022/09/20 04:10:36;;;;;;;;;;;14.90;66.60;;;;;;5017947;28;20383;-87
2022/09/20 04:13:11;;;;;;;;;;;14.90;66.60;;;;;;5017286;28;19928;-86
2022/09/20 04:15:56;;;;;;;;;;;14.90;66.60;;;;;;5016712;28;19922;-87
2022/09/20 04:18:40;;;;;;;;;;;14.90;66.60;;;;;;5017910;28;20354;-86
2022/09/20 04:21:14;;;;;;;;;;;14.90;66.60;;;;;;5017010;28;19921;-88
2022/09/20 04:23:43;;;;;;;;;;;14.90;66.60;;;;;;5016732;28;19920;-86
2022/09/20 04:26:09;;;;;;;;;;;14.90;66.70;;;;;;5016181;28;19921;-87
2022/09/20 04:28:39;;;;;;;;;;;14.90;66.70;;;;;;5016691;28;19948;-85
2022/09/20 04:31:13;;;;;;;;;;;14.90;66.70;;;;;;5016355;28;20003;-87
2022/09/20 04:33:41;;;;;;;;;;;14.90;66.60;;;;;;5016088;28;19968;-86
2022/09/20 04:36:33;;;;;;;;;;;14.90;66.60;;;;;;5015878;28;19917;-85
2022/09/20 04:39:22;;;;;;;;;;;14.90;66.60;;;;;;5000776;28;19920;-85
2022/09/20 04:41:59;;;;;;;;;;;14.90;66.60;;;;;;5017169;28;19913;-88
2022/09/20 04:44:57;;;;;;;;;;;14.90;66.60;;;;;;5016230;28;19959;-87
2022/09/20 04:47:42;;;;;;;;;;;14.90;66.70;;;;;;5005188;28;20345;-85
2022/09/20 04:50:24;;;;;;;;;;;14.80;66.60;;;;;;5015972;28;19914;-87
2022/09/20 04:53:14;;;;;;;;;;;14.80;66.60;;;;;;5016687;28;20235;-86
2022/09/20 04:55:55;;;;;;;;;;;14.80;66.60;;;;;;5016712;28;19914;-88
2022/09/20 04:58:24;;;;;;;;;;;14.80;66.70;;;;;;5016830;28;19964;-88
2022/09/20 05:01:01;;;;;;;;;;;14.80;66.70;;;;;;5020191;28;19984;-89
2022/09/20 05:03:47;;;;;;;;;;;14.80;66.70;;;;;;5018918;28;20014;-87
2022/09/20 05:06:28;;;;;;;;;;;14.80;66.70;;;;;;5022185;28;19920;-85
2022/09/20 05:09:00;;;;;;;;;;;14.80;66.70;;;;;;5028875;28;20446;-86
2022/09/20 05:11:40;;;;;;;;;;;14.80;66.70;;;;;;5030212;28;19914;-84
2022/09/20 05:14:11;;;;;;;;;;;14.80;66.70;;;;;;5027127;28;19921;-82
2022/09/20 05:16:56;;;;;;;;;;;14.70;66.70;;;;;;5022530;28;19953;-85
2022/09/20 05:19:38;;;;;;;;;;;14.70;66.70;;;;;;5020354;28;19921;-86
2022/09/20 05:22:27;;;;;;;;;;;14.70;66.70;;;;;;5016528;28;20008;-86
2022/09/20 05:25:11;;;;;;;;;;;14.70;66.70;;;;;;5006334;28;19914;-87
2022/09/20 05:27:36;;;;;;;;;;;14.70;66.70;;;;;;4998724;28;19913;-86
2022/09/20 05:30:18;;;;;;;;;;;14.70;66.70;;;;;;5015798;28;19910;-85
2022/09/20 05:32:54;;;;;;;;;;;14.70;66.70;;;;;;5014885;28;19944;-86
2022/09/20 05:35:24;;;;;;;;;;;14.70;66.70;;;;;;5015690;28;19918;-87
2022/09/20 05:37:59;;;;;;;;;;;14.70;66.70;;;;;;5017631;28;19916;-87
2022/09/20 05:40:54;;;;;;;;;;;14.70;66.70;;;;;;5016967;28;19921;-87
2022/09/20 05:43:58;;;;;;;;;;;14.70;66.80;;;;;;5011597;28;19995;-87
2022/09/20 05:46:39;;;;;;;;;;;14.70;66.70;;;;;;4979275;28;19914;-85
2022/09/20 05:49:16;;;;;;;;;;;14.70;66.80;;;;;;4962775;28;19920;-85
2022/09/20 05:51:51;;;;;;;;;;;14.70;66.80;;;;;;5001615;28;19920;-87
2022/09/20 05:54:16;;;;;;;;;;;14.70;66.80;;;;;;5015427;28;20421;-87
2022/09/20 05:56:52;;;;;;;;;;;14.70;66.80;;;;;;5014953;28;19960;-94
2022/09/20 05:59:24;;;;;;;;;;;14.70;66.80;;;;;;5015464;28;19913;-85
2022/09/20 06:02:08;;;;;;;;;;;14.70;66.80;;;;;;5018889;28;19972;-90
2022/09/20 06:04:46;;;;;;;;;;;14.70;66.80;;;;;;5016920;28;19909;-87
2022/09/20 06:07:12;;;;;;;;;;;14.70;66.80;;;;;;5019032;28;19920;-83
2022/09/20 06:09:58;;;;;;;;;;;14.60;66.80;;;;;;5019296;28;19905;-86
2022/09/20 06:12:35;;;;;;;;;;;14.60;66.80;;;;;;5001645;28;19913;-86
2022/09/20 06:15:20;;;;;;;;;;;14.60;66.80;;;;;;5013968;28;20067;-87
2022/09/20 06:18:15;;;;;;;;;;;14.70;66.80;;;;;;5014996;28;19914;-85
2022/09/20 06:21:01;;;;;;;;;;;14.60;66.80;;;;;;5014452;28;19921;-86
2022/09/20 06:23:26;;;;;;;;;;;14.60;66.80;;;;;;5006668;28;20004;-82
2022/09/20 06:25:58;;;;;;;;;;;14.60;66.80;;;;;;5015620;28;19948;-85
2022/09/20 06:28:33;;;;;;;;;;;14.60;66.80;;;;;;5014174;28;19913;-87
2022/09/20 06:30:59;;;;;;;;;;;14.60;66.80;;;;;;5014724;28;20004;-84
2022/09/20 06:33:25;;;;;;;;;;;14.60;66.80;;;;;;4997008;28;19957;-85
2022/09/20 06:41:25;;;;;;;;;;;14.60;66.80;;;;;;5013520;28;20004;-85
2022/09/20 06:41:33;;;;;;;;;;;14.60;66.80;;;;;;5013406;28;19914;-87
2022/09/20 06:44:04;;;;;;;;;;;14.60;66.80;;;;;;4997903;28;19913;-90
2022/09/20 06:46:30;;;;;;;;;;;14.60;66.80;;;;;;5014725;28;19914;-89
2022/09/20 06:48:56;;;;;;;;;;;14.60;66.80;;;;;;5013570;28;20043;-88
2022/09/20 06:51:24;;;;;;;;;;;14.60;66.80;;;;;;5014002;28;19964;-88
2022/09/20 06:53:49;;;;;;;;;;;14.60;66.80;;;;;;5017763;28;19917;-86
2022/09/20 06:56:21;;;;;;;;;;;14.60;66.80;;;;;;5001697;28;20008;-86
2022/09/20 06:58:46;;;;;;;;;;;14.70;66.90;;;;;;5019377;28;19919;-86
2022/09/20 07:01:12;;;;;;;;;;;14.60;66.80;;;;;;5018011;28;19914;-86
2022/09/20 07:03:38;;;;;;;;;;;14.70;66.90;;;;;;5002215;28;19967;-88
2022/09/20 07:06:05;;;;;;;;;;;14.70;66.90;;;;;;5001281;28;19977;-87
2022/09/20 07:08:30;;;;;;;;;;;14.70;66.90;;;;;;5001373;28;19917;-88
2022/09/20 07:10:56;;;;;;;;;;;14.70;66.90;;;;;;4985246;28;20004;-87
2022/09/20 07:13:22;;;;;;;;;;;14.70;66.90;;;;;;5001194;28;19976;-87
2022/09/20 07:15:49;;;;;;;;;;;14.70;66.90;;;;;;5017507;28;19929;-86
2022/09/20 07:18:16;;;;;;;;;;;14.70;66.90;;;;;;5017766;28;19960;-86
2022/09/20 07:20:41;;;;;;;;;;;14.70;66.90;;;;;;5017470;28;19925;-88
2022/09/20 07:23:07;;;;;;;;;;;14.70;66.90;;;;;;5001286;28;19913;-87
2022/09/20 07:25:33;;;;;;;;;;;14.80;67.00;;;;;;5017392;28;20255;-87
2022/09/20 07:27:58;;;;;;;;;;;14.80;66.90;;;;;;5001529;28;19914;-84
2022/09/20 07:30:24;;;;;;;;;;;14.80;67.00;;;;;;5016374;28;20007;-86
2022/09/20 07:32:50;;;;;;;;;;;14.80;67.00;;;;;;5001162;28;20269;-82
2022/09/20 07:35:16;;;;;;;;;;;14.80;66.90;;;;;;5017556;28;19909;-84
2022/09/20 07:37:41;;;;;;;;;;;14.80;66.90;;;;;;5016617;28;19918;-83
2022/09/20 07:40:08;;;;;;;;;;;14.80;66.90;;;;;;5017000;28;19914;-84
2022/09/20 07:42:34;;;;;;;;;;;14.90;67.00;;;;;;5016761;28;19992;-85
2022/09/20 07:45:01;;;;;;;;;;;14.90;67.00;;;;;;5017095;28;19913;-85
2022/09/20 07:47:30;;;;;;;;;;;14.90;67.00;;;;;;5017918;28;19921;-85
2022/09/20 07:49:55;;;;;;;;;;;14.90;66.90;;;;;;5001650;28;19913;-86
2022/09/20 07:52:21;;;;;;;;;;;14.90;66.90;;;;;;5016825;28;19929;-86
2022/09/20 07:54:48;;;;;;;;;;;14.90;66.90;;;;;;4984037;28;19921;-85
2022/09/20 07:57:14;;;;;;;;;;;14.90;66.90;;;;;;5016873;28;20024;-86
2022/09/20 07:59:40;;;;;;;;;;;15.00;67.00;;;;;;5018178;28;19910;-85
2022/09/20 08:02:06;;;;;;;;;;;15.00;67.00;;;;;;5017184;28;19925;-85
2022/09/20 08:04:32;;;;;;;;;;;15.00;67.00;;;;;;5001014;28;20036;-85
2022/09/20 08:06:57;;;;;;;;;;;15.00;67.00;;;;;;5000800;28;19919;-85
2022/09/20 08:09:23;;;;;;;;;;;15.00;66.90;;;;;;4984474;28;20012;-85
2022/09/20 08:11:49;;;;;;;;;;;15.00;67.00;;;;;;5017636;28;19960;-86
2022/09/20 08:14:16;;;;;;;;;;;15.00;67.00;;;;;;4999606;28;20400;-85
2022/09/20 08:16:43;;;;;;;;;;;15.00;67.00;;;;;;5016868;28;19918;-86
2022/09/20 08:19:12;;;;;;;;;;;15.10;67.00;;;;;;5016895;28;19913;-87
2022/09/20 08:21:38;;;;;;;;;;;15.10;67.00;;;;;;5016564;28;19909;-86
2022/09/20 08:24:04;;;;;;;;;;;15.10;67.00;;;;;;5016130;28;20413;-87
2022/09/20 08:26:30;;;;;;;;;;;15.10;67.00;;;;;;5017458;28;19960;-85
2022/09/20 08:28:57;;;;;;;;;;;15.20;67.00;;;;;;5016211;28;19916;-86
2022/09/20 08:31:24;;;;;;;;;;;15.10;67.00;;;;;;4999707;28;19924;-84
2022/09/20 08:33:50;;;;;;;;;;;15.20;67.00;;;;;;5015863;28;19936;-86
2022/09/20 08:36:23;;;;;;;;;;;15.20;67.00;;;;;;5016452;28;19917;-83
2022/09/20 08:38:49;;;;;;;;;;;15.20;67.00;;;;;;5016961;28;19914;-86
2022/09/20 08:41:17;;;;;;;;;;;15.20;67.00;;;;;;5016260;28;19932;-87
2022/09/20 08:44:16;;;;;;;;;;;15.30;67.00;;;;;;5015933;28;20388;-87
2022/09/20 08:46:43;;;;;;;;;;;15.30;67.10;;;;;;4994151;28;19924;-87
2022/09/20 08:49:12;;;;;;;;;;;15.30;67.10;;;;;;4999518;28;19910;-87
2022/09/20 08:51:38;;;;;;;;;;;15.30;67.10;;;;;;5016351;28;19909;-87
2022/09/20 08:54:06;;;;;;;;;;;15.30;67.10;;;;;;5015640;28;19914;-85
2022/09/20 08:56:35;;;;;;;;;;;15.40;67.10;;;;;;5015707;28;19921;-86
2022/09/20 08:59:01;;;;;;;;;;;15.40;67.10;;;;;;5015448;28;19914;-84
2022/09/20 09:01:32;;;;;;;;;;;15.40;67.00;;;;;;5015880;28;20410;-87
2022/09/20 09:04:01;;;;;;;;;;;15.50;67.00;;;;;;5015757;28;19918;-86
2022/09/20 09:06:27;;;;;;;;;;;15.50;67.00;;;;;;5016551;28;20257;-85
2022/09/20 09:08:55;;;;;;;;;;;15.50;67.00;;;;;;5015017;28;19918;-86
2022/09/20 09:11:22;;;;;;;;;;;15.50;67.00;;;;;;5016329;28;19993;-87
2022/09/20 09:13:52;;;;;;;;;;;15.60;67.00;;;;;;4998619;28;19975;-85
2022/09/20 09:16:21;;;;;;;;;;;15.60;67.00;;;;;;5014883;28;19921;-86
2022/09/20 09:18:50;;;;;;;;;;;15.60;67.00;;;;;;5015227;28;19913;-87
2022/09/20 09:21:23;;;;;;;;;;;15.70;67.00;;;;;;5015780;28;19917;-85
2022/09/20 09:24:01;;;;;;;;;;;15.70;67.00;;;;;;5015062;28;19913;-87
2022/09/20 09:26:27;;;;;;;;;;;15.70;67.00;;;;;;5015065;28;19921;-86
2022/09/20 09:29:12;;;;;;;;;;;15.80;67.00;;;;;;5016188;28;19917;-85
2022/09/20 09:31:38;;;;;;;;;;;15.80;67.00;;;;;;5027660;28;19913;-82
2022/09/20 09:34:04;;;;;;;;;;;15.80;66.90;;;;;;5037063;28;19929;-83
2022/09/20 09:36:30;;;;;;;;;;;15.80;66.90;;;;;;5025112;28;19995;-86
2022/09/20 09:39:15;;;;;;;;;;;15.90;66.90;;;;;;5020514;28;19956;-85
2022/09/20 09:41:42;;;;;;;;;;;15.90;66.90;;;;;;5020856;28;19940;-85
2022/09/20 09:44:18;;;;;;;;;;;15.90;66.90;;;;;;4998835;28;19957;-86
2022/09/20 09:46:44;;;;;;;;;;;16.00;67.00;;;;;;5016172;28;19953;-84
2022/09/20 09:49:14;;;;;;;;;;;16.00;66.90;;;;;;4997552;28;19914;-83
2022/09/20 09:51:42;;;;;;;;;;;16.00;66.90;;;;;;4997848;28;19914;-86
2022/09/20 09:54:11;;;;;;;;;;;16.00;66.90;;;;;;5013916;28;19914;-83
2022/09/20 09:56:56;;;;;;;;;;;16.10;66.90;;;;;;5014041;28;19917;-82
2022/09/20 09:59:31;;;;;;;;;;;16.10;66.90;;;;;;5014941;28;19917;-82
2022/09/20 10:02:18;;;;;;;;;;;16.10;66.80;;;;;;5013995;28;19909;-88
2022/09/20 10:05:01;;;;;;;;;;;16.20;66.90;;;;;;5015791;28;19920;-87
2022/09/20 10:07:38;;;;;;;;;;;16.20;66.80;;;;;;5014627;28;19920;-92
2022/09/20 10:10:04;;;;;;;;;;;16.20;66.80;;;;;;5015766;28;19956;-90
2022/09/20 10:12:33;;;;;;;;;;;16.20;66.70;;;;;;4998943;28;20334;-91
2022/09/20 10:15:09;;;;;;;;;;;16.30;66.70;;;;;;5013819;28;19922;-88
2022/09/20 10:17:45;;;;;;;;;;;16.30;66.70;;;;;;5015696;28;19914;-88
2022/09/20 10:20:26;;;;;;;;;;;16.40;66.70;;;;;;5017495;28;19968;-89
2022/09/20 10:23:04;;;;;;;;;;;16.40;66.60;;;;;;5014598;28;20353;-83
2022/09/20 10:25:38;;;;;;;;;;;16.40;66.60;;;;;;5014568;28;19964;-92
2022/09/20 10:28:18;;;;;;;;;;;16.40;66.50;;;;;;5014483;28;19914;-89
2022/09/20 10:30:47;;;;;;;;;;;16.50;66.60;;;;;;5015113;28;20342;-84
2022/09/20 10:33:31;;;;;;;;;;;16.60;66.50;;;;;;4998258;28;19921;-90
2022/09/20 10:36:23;;;;;;;;;;;16.60;67.10;;;;;;5015252;28;19921;-81
2022/09/20 10:38:56;;;;;;;;;;;16.60;66.40;;;;;;5000181;28;19920;-85
2022/09/20 10:44:11;;;;;;;;;;;16.70;66.30;;;;;;5016166;28;19914;-88
2022/09/20 10:46:50;;;;;;;;;;;16.80;66.30;;;;;;5013872;28;19920;-88
2022/09/20 10:49:28;;;;;;;;;;;16.90;66.30;;;;;;5013934;28;19921;-91
2022/09/20 10:52:09;;;;;;;;;;;16.90;66.20;;;;;;5014948;28;19917;-89
2022/09/20 10:54:51;;;;;;;;;;;17.00;66.20;;;;;;5014795;28;19917;-87
2022/09/20 10:57:27;;;;;;;;;;;17.00;66.20;;;;;;5014567;28;19921;-90
2022/09/20 11:00:05;;;;;;;;;;;17.10;66.20;;;;;;5015553;28;19913;-90
2022/09/20 11:02:47;;;;;;;;;;;17.20;66.20;;;;;;4997929;28;20344;-82
2022/09/20 11:05:32;;;;;;;;;;;17.20;66.10;;;;;;5013641;28;19914;-85
2022/09/20 11:08:12;;;;;;;;;;;17.30;66.10;;;;;;5014150;28;20004;-87
2022/09/20 11:10:47;;;;;;;;;;;17.30;66.10;;;;;;5014257;28;19914;-85
2022/09/20 11:13:31;;;;;;;;;;;17.30;66.00;;;;;;5013647;28;19917;-87
2022/09/20 11:16:02;;;;;;;;;;;17.40;66.10;;;;;;5015048;28;19968;-88
2022/09/20 11:18:30;;;;;;;;;;;17.40;66.00;;;;;;5013960;28;19918;-88
2022/09/20 11:20:59;;;;;;;;;;;17.50;66.00;;;;;;5013845;28;19910;-88
2022/09/20 11:23:32;;;;;;;;;;;17.50;66.00;;;;;;5014868;28;19960;-87
2022/09/20 11:26:04;;;;;;;;;;;17.60;66.00;;;;;;5015002;28;19920;-95
2022/09/20 11:28:41;;;;;;;;;;;17.60;66.00;;;;;;5015117;28;19913;-86
2022/09/20 11:31:15;;;;;;;;;;;17.70;66.00;;;;;;5013416;28;19981;-87
2022/09/20 11:33:55;;;;;;;;;;;17.70;66.00;;;;;;5014934;28;19930;-85
2022/09/20 11:36:29;;;;;;;;;;;17.70;66.00;;;;;;5013535;28;19913;-88
2022/09/20 11:38:57;;;;;;;;;;;17.80;66.00;;;;;;5015658;28;20342;-88
2022/09/20 11:41:28;;;;;;;;;;;17.80;66.00;;;;;;5018262;28;20378;-86
2022/09/20 11:44:00;;;;;;;;;;;17.80;66.00;;;;;;5017137;28;19913;-85
2022/09/20 11:46:32;;;;;;;;;;;17.90;66.00;;;;;;5018268;28;19913;-84
2022/09/20 11:49:01;;;;;;;;;;;18.00;66.00;;;;;;5001292;28;19914;-87
2022/09/20 11:51:35;;;;;;;;;;;18.00;65.90;;;;;;5000529;28;19909;-86
2022/09/20 11:54:21;;;;;;;;;;;18.00;65.90;;;;;;5017629;28;19932;-86
2022/09/20 11:56:51;;;;;;;;;;;18.10;65.90;;;;;;5016732;28;19916;-84
2022/09/20 11:59:27;;;;;;;;;;;18.10;65.80;;;;;;5016814;28;19910;-85
2022/09/20 12:01:54;;;;;;;;;;;18.20;65.80;;;;;;5000608;28;19916;-86
2022/09/20 12:04:22;;;;;;;;;;;18.20;65.80;;;;;;4999770;28;19916;-86
2022/09/20 12:06:57;;;;;;;;;;;18.20;65.70;;;;;;5016553;28;20266;-86
2022/09/20 12:09:25;;;;;;;;;;;18.20;65.60;;;;;;5017370;28;19920;-88
2022/09/20 12:11:54;;;;;;;;;;;18.30;65.70;;;;;;5017261;28;19909;-84
2022/09/20 12:14:25;;;;;;;;;;;18.30;65.60;;;;;;5015874;28;19932;-85
2022/09/20 12:16:50;;;;;;;;;;;18.30;65.60;;;;;;5017530;28;19948;-87
2022/09/20 12:19:37;;;;;;;;;;;18.40;65.60;;;;;;4983824;28;19968;-87
2022/09/20 12:22:03;;;;;;;;;;;18.40;65.50;;;;;;5017542;28;19913;-87
2022/09/20 12:24:32;;;;;;;;;;;18.50;65.60;;;;;;5016167;28;19916;-85
2022/09/20 12:26:59;;;;;;;;;;;18.50;65.50;;;;;;4999919;28;19918;-87
2022/09/20 12:29:32;;;;;;;;;;;18.50;65.50;;;;;;5016274;28;19910;-87
2022/09/20 12:32:02;;;;;;;;;;;18.50;65.50;;;;;;5016570;28;19914;-86
2022/09/20 12:34:32;;;;;;;;;;;18.50;65.40;;;;;;5016399;28;20358;-86
2022/09/20 12:36:58;;;;;;;;;;;18.60;65.50;;;;;;5016294;28;20381;-85
2022/09/20 12:39:26;;;;;;;;;;;18.60;65.40;;;;;;5032925;28;19914;-86
2022/09/20 12:41:54;;;;;;;;;;;18.60;65.40;;;;;;5016362;28;19918;-87
2022/09/20 12:44:39;;;;;;;;;;;18.70;65.40;;;;;;5020903;28;20424;-86
2022/09/20 12:47:10;;;;;;;;;;;18.70;65.40;;;;;;5019663;28;20024;-85
2022/09/20 12:55:26;;;;;;;;;;;18.80;65.40;;;;;;5016675;28;19921;-89
2022/09/20 12:57:57;;;;;;;;;;;18.80;65.40;;;;;;5017051;28;19968;-89
2022/09/20 13:00:30;;;;;;;;;;;18.80;65.30;;;;;;5015623;28;20025;-91
2022/09/20 13:02:57;;;;;;;;;;;18.80;66.00;;;;;;5015110;28;19909;-82
2022/09/20 13:05:30;;;;;;;;;;;18.90;65.30;;;;;;5015321;28;19910;-85
2022/09/20 13:08:16;;;;;;;;;;;18.90;65.30;;;;;;5014946;28;19909;-86
2022/09/20 13:10:47;;;;;;;;;;;18.90;65.30;;;;;;5007528;28;19913;-83
2022/09/20 13:13:33;;;;;;;;;;;18.90;65.20;;;;;;5016184;28;19918;-90
2022/09/20 13:16:00;;;;;;;;;;;19.00;65.20;;;;;;5007635;28;19928;-82
2022/09/20 13:18:26;;;;;;;;;;;19.00;65.20;;;;;;5014490;28;19921;-84
2022/09/20 13:20:53;;;;;;;;;;;19.00;65.20;;;;;;5014316;28;19918;-84
2022/09/20 13:23:29;;;;;;;;;;;19.00;65.10;;;;;;5015425;28;19939;-90
2022/09/20 13:25:56;;;;;;;;;;;19.10;65.10;;;;;;5015433;28;19921;-88
2022/09/20 13:28:41;;;;;;;;;;;19.10;65.10;;;;;;5016014;28;20385;-90
2022/09/20 13:31:21;;;;;;;;;;;19.10;65.10;;;;;;5016615;28;19953;-87
2022/09/20 13:33:47;;;;;;;;;;;19.10;65.10;;;;;;5031762;28;19928;-88
2022/09/20 13:36:13;;;;;;;;;;;19.20;65.10;;;;;;5014855;28;19959;-92
2022/09/20 13:38:39;;;;;;;;;;;19.20;65.00;;;;;;5015624;28;19913;-86
2022/09/20 13:41:10;;;;;;;;;;;19.20;65.00;;;;;;5015096;28;19921;-84
2022/09/20 13:43:40;;;;;;;;;;;19.20;64.90;;;;;;5031733;28;19914;-83
2022/09/20 13:46:07;;;;;;;;;;;19.20;64.90;;;;;;4998031;28;19925;-84
2022/09/20 13:48:32;;;;;;;;;;;19.30;64.90;;;;;;5013878;28;19910;-82
2022/09/20 13:50:58;;;;;;;;;;;19.30;64.90;;;;;;5014348;28;19909;-84
2022/09/20 13:53:25;;;;;;;;;;;19.30;64.80;;;;;;4997857;28;19925;-83
2022/09/20 13:55:53;;;;;;;;;;;19.30;64.80;;;;;;5013680;28;19940;-84
2022/09/20 13:58:30;;;;;;;;;;;19.30;65.40;;;;;;5017897;28;20327;-86
2022/09/20 14:01:03;;;;;;;;;;;19.30;64.70;;;;;;5025538;28;19936;-86
2022/09/20 14:03:31;;;;;;;;;;;19.30;64.70;;;;;;5027179;28;20365;-86
2022/09/20 14:06:06;;;;;;;;;;;19.30;64.70;;;;;;5026046;28;19910;-85
2022/09/20 14:08:46;;;;;;;;;;;19.40;64.70;;;;;;5025091;28;19977;-88
2022/09/20 14:11:12;;;;;;;;;;;19.40;64.70;;;;;;5020421;28;19913;-87
2022/09/20 14:13:39;;;;;;;;;;;19.40;64.60;;;;;;5016723;28;19972;-88
2022/09/20 14:16:06;;;;;;;;;;;19.40;64.60;;;;;;5031281;28;19922;-88
2022/09/20 14:18:32;;;;;;;;;;;19.40;64.60;;;;;;4998434;28;19933;-86
2022/09/20 14:20:59;;;;;;;;;;;19.40;64.60;;;;;;5014619;28;19920;-87
2022/09/20 14:23:25;;;;;;;;;;;19.40;64.60;;;;;;4998341;28;19909;-87
2022/09/20 14:26:13;;;;;;;;;;;19.40;64.50;;;;;;5014341;28;19914;-87
2022/09/20 14:28:39;;;;;;;;;;;19.40;64.50;;;;;;5014203;28;19920;-88
2022/09/20 14:31:11;;;;;;;;;;;19.40;64.50;;;;;;5014076;28;19914;-88
2022/09/20 14:33:42;;;;;;;;;;;19.40;64.50;;;;;;5014290;28;19922;-88
2022/09/20 14:36:14;;;;;;;;;;;19.40;64.40;;;;;;5015187;28;19920;-86
2022/09/20 14:38:42;;;;;;;;;;;19.40;64.40;;;;;;5013906;28;19972;-86
2022/09/20 14:41:08;;;;;;;;;;;19.40;64.30;;;;;;5013579;28;20016;-87
2022/09/20 14:43:35;;;;;;;;;;;19.50;64.30;;;;;;5014391;28;19957;-88
2022/09/20 14:46:02;;;;;;;;;;;19.50;64.40;;;;;;5014161;28;19914;-88
2022/09/20 14:48:39;;;;;;;;;;;19.50;64.40;;;;;;5015015;28;19917;-88
2022/09/20 14:51:14;;;;;;;;;;;19.50;64.30;;;;;;5014320;28;19920;-86
2022/09/20 14:53:40;;;;;;;;;;;19.50;65.00;;;;;;5013594;28;19928;-86
2022/09/20 14:56:09;;;;;;;;;;;19.50;64.30;;;;;;5014785;28;20004;-86
2022/09/20 14:58:53;;;;;;;;;;;19.50;64.30;;;;;;5013802;28;19913;-87
2022/09/20 15:01:24;;;;;;;;;;;19.50;64.30;;;;;;5014649;28;19914;-90
2022/09/20 15:03:51;;;;;;;;;;;19.50;64.30;;;;;;5014966;28;19913;-94
2022/09/20 15:06:17;;;;;;;;;;;19.60;64.30;;;;;;5020195;28;19921;-94
2022/09/20 15:08:43;;;;;;;;;;;19.50;64.20;;;;;;5026858;28;19932;-95
2022/09/20 15:11:15;;;;;;;;;;;19.60;64.30;;;;;;5013554;28;20354;-89
2022/09/20 15:13:41;;;;;;;;;;;19.60;64.30;;;;;;5010472;28;19960;-86